Time;durP1;ratioP1;P1;durP2;ratioP2;P2;SDS_P1;SDS_P2;PMS_P1;PMS_P2;Temp;Humidity;BMP_temperature;BMP_pressure;BME280_temperature;BME280_humidity;BME280_pressure;Samples;Min_cycle;Max_cycle;Signal;HPM_P1;HPM_P2
2021/08/10 00:00:56;;;;;;;8.70;5.30;;;;;;;;;;5112855;27;20050;-69
2021/08/10 00:03:22;;;;;;;7.90;5.10;;;;;;;;;;5109315;27;20051;-70
2021/08/10 00:05:48;;;;;;;7.72;4.90;;;;;;;;;;5117923;27;20419;-70
2021/08/10 00:08:18;;;;;;;7.45;4.80;;;;;;;;;;5101891;27;20054;-70
2021/08/10 00:10:45;;;;;;;8.65;5.78;;;;;;;;;;5114744;27;20047;-69
2021/08/10 00:13:13;;;;;;;8.52;6.00;;;;;;;;;;5108762;27;20523;-69
2021/08/10 00:15:39;;;;;;;9.82;6.13;;;;;;;;;;5117812;27;20308;-69
2021/08/10 00:18:06;;;;;;;10.45;6.38;;;;;;;;;;5114143;27;20042;-70
2021/08/10 00:20:32;;;;;;;7.65;6.00;;;;;;;;;;5081199;27;20112;-70
2021/08/10 00:22:58;;;;;;;9.40;6.72;;;;;;;;;;5115904;27;20399;-71
2021/08/10 00:25:24;;;;;;;8.65;6.65;;;;;;;;;;5109314;27;20042;-70
2021/08/10 00:27:51;;;;;;;9.63;6.85;;;;;;;;;;5096426;27;20457;-70
2021/08/10 00:30:17;;;;;;;8.65;6.18;;;;;;;;;;5107821;27;20119;-70
2021/08/10 00:32:43;;;;;;;9.68;6.68;;;;;;;;;;5117144;27;20471;-69
2021/08/10 00:35:09;;;;;;;9.77;7.05;;;;;;;;;;5083842;27;20460;-69
2021/08/10 00:37:36;;;;;;;8.27;6.53;;;;;;;;;;5110332;27;20038;-69
2021/08/10 00:40:02;;;;;;;11.27;6.68;;;;;;;;;;5112980;27;20036;-69
2021/08/10 00:42:28;;;;;;;10.27;7.60;;;;;;;;;;5117637;27;20453;-69
2021/08/10 00:44:54;;;;;;;12.75;7.05;;;;;;;;;;5110317;27;20028;-69
2021/08/10 00:47:20;;;;;;;9.35;7.18;;;;;;;;;;5082710;28;20396;-69
2021/08/10 00:49:47;;;;;;;10.60;6.93;;;;;;;;;;5108570;27;20557;-70
2021/08/10 00:52:13;;;;;;;7.63;6.32;;;;;;;;;;5115534;27;20079;-70
2021/08/10 00:54:39;;;;;;;13.35;6.95;;;;;;;;;;5108854;27;20043;-69
2021/08/10 00:57:05;;;;;;;12.93;7.45;;;;;;;;;;5112487;27;20063;-69
2021/08/10 00:59:31;;;;;;;10.73;6.55;;;;;;;;;;5116750;27;20104;-69
2021/08/10 01:01:58;;;;;;;10.70;6.72;;;;;;;;;;5107296;27;20035;-69
2021/08/10 01:04:24;;;;;;;10.60;6.95;;;;;;;;;;5110161;27;20567;-69
2021/08/10 01:07:09;;;;;;;9.45;6.70;;;;;;;;;;5113868;27;20062;-69
2021/08/10 01:09:35;;;;;;;12.68;7.53;;;;;;;;;;5115282;27;20097;-69
2021/08/10 01:12:10;;;;;;;12.93;7.63;;;;;;;;;;5104658;27;20042;-69
2021/08/10 01:14:52;;;;;;;10.02;7.00;;;;;;;;;;5111182;27;20131;-69
2021/08/10 01:17:23;;;;;;;10.10;7.35;;;;;;;;;;5100442;27;20105;-69
2021/08/10 01:20:05;;;;;;;10.18;7.15;;;;;;;;;;5117930;27;20038;-69
2021/08/10 01:22:31;;;;;;;10.50;7.53;;;;;;;;;;5103499;27;20086;-69
2021/08/10 01:25:22;;;;;;;12.52;7.10;;;;;;;;;;5113351;27;20122;-69
2021/08/10 01:28:06;;;;;;;8.95;7.40;;;;;;;;;;5101440;27;20399;-69
2021/08/10 01:30:33;;;;;;;;;;;;;;;;;;5098797;28;20134;-69
2021/08/10 01:33:00;;;;;;;10.00;6.70;;;;;;;;;;5091657;27;19915;-69
2021/08/10 01:35:27;;;;;;;9.60;7.35;;;;;;;;;;5113675;27;20039;-69
2021/08/10 01:37:57;;;;;;;11.25;6.65;;;;;;;;;;5107836;27;20035;-69
2021/08/10 01:40:27;;;;;;;9.00;7.28;;;;;;;;;;5117898;27;20034;-69
2021/08/10 01:42:54;;;;;;;11.27;6.65;;;;;;;;;;5108160;27;20044;-69
2021/08/10 01:45:21;;;;;;;7.30;6.10;;;;;;;;;;5114511;27;20031;-69
2021/08/10 01:47:47;;;;;;;8.35;6.82;;;;;;;;;;5100610;27;20024;-70
2021/08/10 01:50:13;;;;;;;12.80;6.40;;;;;;;;;;5114106;28;20047;-69
2021/08/10 01:52:42;;;;;;;9.02;6.75;;;;;;;;;;5108972;28;20063;-69
2021/08/10 01:55:09;;;;;;;10.90;6.65;;;;;;;;;;5113120;28;20066;-69
2021/08/10 01:57:36;;;;;;;9.75;6.97;;;;;;;;;;5108328;28;20047;-69
2021/08/10 02:00:02;;;;;;;9.82;6.40;;;;;;;;;;5114910;28;20059;-69
2021/08/10 02:02:28;;;;;;;14.23;7.57;;;;;;;;;;5107104;28;20096;-69
2021/08/10 02:04:54;;;;;;;10.57;6.45;;;;;;;;;;5111254;28;20103;-69
2021/08/10 02:07:22;;;;;;;9.50;6.43;;;;;;;;;;5115057;28;20055;-69
2021/08/10 02:09:49;;;;;;;10.27;6.40;;;;;;;;;;5105683;28;20123;-69
2021/08/10 02:12:16;;;;;;;12.18;6.70;;;;;;;;;;5115980;28;20031;-69
2021/08/10 02:14:44;;;;;;;10.13;7.10;;;;;;;;;;5107309;28;20047;-70
2021/08/10 02:17:13;;;;;;;11.00;6.10;;;;;;;;;;5118720;28;20379;-69
2021/08/10 02:19:40;;;;;;;8.68;6.80;;;;;;;;;;5087478;28;20065;-69
2021/08/10 02:22:07;;;;;;;9.18;6.32;;;;;;;;;;5108132;28;20444;-70
2021/08/10 02:24:37;;;;;;;8.38;6.18;;;;;;;;;;5108780;28;20035;-69
2021/08/10 02:27:08;;;;;;;14.60;6.80;;;;;;;;;;5118169;28;20036;-69
2021/08/10 02:29:44;;;;;;;6.85;5.72;;;;;;;;;;5104957;28;20047;-69
2021/08/10 02:32:13;;;;;;;9.88;5.75;;;;;;;;;;5114804;28;20131;-69
2021/08/10 02:34:41;;;;;;;11.55;6.55;;;;;;;;;;5107531;28;20043;-69
2021/08/10 02:37:07;;;;;;;13.35;6.93;;;;;;;;;;5114817;27;20100;-69
2021/08/10 02:39:35;;;;;;;11.60;6.35;;;;;;;;;;5102393;27;20540;-69
2021/08/10 02:42:02;;;;;;;9.82;6.53;;;;;;;;;;5113234;27;20089;-69
2021/08/10 02:44:29;;;;;;;10.43;6.30;;;;;;;;;;5114124;27;20472;-69
2021/08/10 02:46:55;;;;;;;12.55;6.97;;;;;;;;;;5118379;27;20041;-69
2021/08/10 02:49:21;;;;;;;9.57;6.72;;;;;;;;;;5108228;27;20058;-69
2021/08/10 02:51:47;;;;;;;10.40;6.63;;;;;;;;;;5117682;27;20058;-69
2021/08/10 02:54:14;;;;;;;8.82;6.60;;;;;;;;;;5100322;28;20415;-69
2021/08/10 02:56:46;;;;;;;11.35;7.50;;;;;;;;;;5109647;27;20456;-69
2021/08/10 02:59:20;;;;;;;11.05;6.47;;;;;;;;;;5117853;27;20506;-69
2021/08/10 03:02:12;;;;;;;10.85;6.78;;;;;;;;;;5114266;27;20035;-70
2021/08/10 03:04:43;;;;;;;8.18;6.32;;;;;;;;;;5118432;27;20487;-69
2021/08/10 03:07:10;;;;;;;9.65;7.68;;;;;;;;;;5113680;27;20051;-69
2021/08/10 03:09:37;;;;;;;9.05;7.03;;;;;;;;;;5117077;27;20051;-69
2021/08/10 03:12:06;;;;;;;11.98;7.45;;;;;;;;;;5106245;27;20031;-69
2021/08/10 03:14:33;;;;;;;11.82;7.53;;;;;;;;;;5119578;27;20471;-69
2021/08/10 03:17:02;;;;;;;14.10;7.78;;;;;;;;;;5108852;27;20047;-69
2021/08/10 03:19:28;;;;;;;11.75;7.93;;;;;;;;;;5113559;27;20112;-69
2021/08/10 03:21:56;;;;;;;11.50;8.23;;;;;;;;;;5093331;27;20071;-69
2021/08/10 03:24:24;;;;;;;11.88;7.72;;;;;;;;;;5118523;27;20067;-69
2021/08/10 03:26:50;;;;;;;9.07;8.18;;;;;;;;;;5106607;27;20058;-69
2021/08/10 03:29:17;;;;;;;15.60;8.55;;;;;;;;;;5116679;27;20421;-69
2021/08/10 03:31:43;;;;;;;11.40;7.85;;;;;;;;;;5109850;27;20027;-69
2021/08/10 03:34:12;;;;;;;11.98;7.85;;;;;;;;;;5119667;27;20039;-69
2021/08/10 03:36:40;;;;;;;11.13;8.23;;;;;;;;;;5107862;27;20472;-69
2021/08/10 03:39:07;;;;;;;12.05;7.07;;;;;;;;;;5116317;27;20038;-69
2021/08/10 03:41:33;;;;;;;11.15;7.10;;;;;;;;;;5115681;27;20123;-69
2021/08/10 03:43:59;;;;;;;8.93;6.55;;;;;;;;;;5113749;27;20039;-69
2021/08/10 03:46:30;;;;;;;9.75;7.07;;;;;;;;;;5109118;27;20115;-69
2021/08/10 03:48:57;;;;;;;10.48;7.82;;;;;;;;;;5114654;27;20031;-69
2021/08/10 03:51:26;;;;;;;11.35;6.60;;;;;;;;;;5117345;27;20040;-69
2021/08/10 03:53:52;;;;;;;14.82;6.53;;;;;;;;;;5106619;27;20418;-69
2021/08/10 03:56:22;;;;;;;10.90;6.30;;;;;;;;;;5096216;28;20043;-69
2021/08/10 03:58:49;;;;;;;8.93;6.00;;;;;;;;;;5104899;27;20051;-69
2021/08/10 04:01:16;;;;;;;10.70;5.82;;;;;;;;;;5118501;27;20436;-69
2021/08/10 04:03:42;;;;;;;10.55;6.55;;;;;;;;;;5109754;27;20043;-69
2021/08/10 04:06:12;;;;;;;11.75;6.35;;;;;;;;;;5113460;27;20159;-69
2021/08/10 04:08:38;;;;;;;10.27;6.43;;;;;;;;;;5108567;27;20032;-69
2021/08/10 04:11:05;;;;;;;11.05;6.32;;;;;;;;;;5118067;27;20042;-69
2021/08/10 04:13:34;;;;;;;12.68;7.00;;;;;;;;;;5104995;27;20027;-69
2021/08/10 04:16:05;;;;;;;13.07;7.05;;;;;;;;;;5114070;27;20399;-69
2021/08/10 04:18:34;;;;;;;12.63;7.88;;;;;;;;;;5110346;27;20062;-70
2021/08/10 04:21:01;;;;;;;11.43;7.82;;;;;;;;;;5096852;27;20068;-70
2021/08/10 04:23:27;;;;;;;14.32;7.75;;;;;;;;;;5081531;27;20044;-71
2021/08/10 04:25:53;;;;;;;19.92;8.13;;;;;;;;;;5119621;27;20032;-72
2021/08/10 04:28:20;;;;;;;14.10;8.27;;;;;;;;;;5112698;27;20046;-71
2021/08/10 04:30:47;;;;;;;14.00;8.00;;;;;;;;;;5114486;27;20452;-71
2021/08/10 04:33:13;;;;;;;17.00;8.63;;;;;;;;;;5107255;27;20483;-73
2021/08/10 04:35:39;;;;;;;14.55;8.77;;;;;;;;;;5117811;27;20053;-72
2021/08/10 04:38:05;;;;;;;21.50;8.85;;;;;;;;;;5087032;27;20040;-72
2021/08/10 04:40:32;;;;;;;15.32;9.25;;;;;;;;;;5105373;27;20107;-72
2021/08/10 04:42:59;;;;;;;15.73;8.68;;;;;;;;;;5115493;27;20032;-71
2021/08/10 04:45:25;;;;;;;27.20;11.40;;;;;;;;;;5114897;27;20035;-71
2021/08/10 04:47:54;;;;;;;21.55;9.63;;;;;;;;;;5113833;27;20070;-70
2021/08/10 04:50:21;;;;;;;13.75;9.80;;;;;;;;;;5112416;27;20027;-70
2021/08/10 04:52:47;;;;;;;21.58;10.25;;;;;;;;;;5109214;27;20051;-69
2021/08/10 04:55:13;;;;;;;18.38;9.45;;;;;;;;;;5106852;27;20054;-69
2021/08/10 04:57:40;;;;;;;19.30;10.68;;;;;;;;;;5086214;27;20043;-68
2021/08/10 05:00:07;;;;;;;16.42;9.00;;;;;;;;;;5102306;27;20385;-68
2021/08/10 05:02:36;;;;;;;19.15;10.55;;;;;;;;;;5115919;27;20042;-68
2021/08/10 05:05:02;;;;;;;26.70;11.15;;;;;;;;;;5109795;27;20031;-68
2021/08/10 05:07:28;;;;;;;21.10;10.65;;;;;;;;;;5112246;27;20047;-68
2021/08/10 05:09:54;;;;;;;26.80;12.23;;;;;;;;;;5104815;27;20028;-68
2021/08/10 05:12:20;;;;;;;15.98;9.77;;;;;;;;;;5115266;27;20454;-68
2021/08/10 05:14:46;;;;;;;35.78;14.50;;;;;;;;;;5111982;27;20050;-67
2021/08/10 05:17:14;;;;;;;36.20;14.30;;;;;;;;;;5102193;27;20472;-67
2021/08/10 05:19:40;;;;;;;34.75;14.68;;;;;;;;;;5118853;27;20468;-68
2021/08/10 05:22:06;;;;;;;40.63;14.70;;;;;;;;;;5106629;27;20040;-68
2021/08/10 05:24:32;;;;;;;23.25;12.88;;;;;;;;;;5110070;27;20501;-68
2021/08/10 05:26:59;;;;;;;29.17;14.30;;;;;;;;;;5103413;27;20032;-68
2021/08/10 05:29:25;;;;;;;27.55;13.40;;;;;;;;;;5118190;27;20092;-68
2021/08/10 05:31:51;;;;;;;17.13;12.50;;;;;;;;;;5106473;27;20040;-68
2021/08/10 05:34:17;;;;;;;29.08;16.08;;;;;;;;;;5113386;27;20035;-68
2021/08/10 05:36:43;;;;;;;16.40;10.88;;;;;;;;;;5108064;27;20036;-68
2021/08/10 05:39:09;;;;;;;27.10;12.93;;;;;;;;;;5115243;27;20474;-68
2021/08/10 05:41:35;;;;;;;22.02;11.88;;;;;;;;;;5104979;27;20030;-68
2021/08/10 05:44:01;;;;;;;31.85;16.88;;;;;;;;;;5114605;27;20124;-68
2021/08/10 05:46:28;;;;;;;25.70;14.00;;;;;;;;;;5108507;27;20127;-68
2021/08/10 05:48:54;;;;;;;22.25;12.43;;;;;;;;;;5115346;27;20043;-68
2021/08/10 05:51:20;;;;;;;16.75;11.32;;;;;;;;;;5107135;28;20074;-68
2021/08/10 05:53:46;;;;;;;17.98;11.88;;;;;;;;;;5111843;28;20114;-69
2021/08/10 05:56:12;;;;;;;27.05;12.93;;;;;;;;;;5117041;28;20088;-69
2021/08/10 05:58:38;;;;;;;32.40;15.48;;;;;;;;;;5107674;28;20035;-69
2021/08/10 06:01:05;;;;;;;24.30;13.75;;;;;;;;;;5107738;28;20036;-69
2021/08/10 06:03:31;;;;;;;21.30;13.63;;;;;;;;;;5110124;28;20111;-68
2021/08/10 06:05:57;;;;;;;27.38;13.73;;;;;;;;;;5118183;28;20110;-68
2021/08/10 06:08:23;;;;;;;26.67;15.52;;;;;;;;;;5105652;28;20044;-68
2021/08/10 06:10:49;;;;;;;24.38;13.35;;;;;;;;;;5107820;28;20036;-68
2021/08/10 06:13:16;;;;;;;21.75;11.52;;;;;;;;;;5112738;27;20050;-69
2021/08/10 06:15:42;;;;;;;14.55;10.73;;;;;;;;;;5120458;27;20062;-69
2021/08/10 06:18:08;;;;;;;16.70;10.02;;;;;;;;;;5107214;27;20410;-69
2021/08/10 06:20:35;;;;;;;12.60;9.38;;;;;;;;;;5116572;27;20040;-69
2021/08/10 06:23:01;;;;;;;15.85;9.73;;;;;;;;;;5112452;27;20036;-69
2021/08/10 06:25:27;;;;;;;14.32;9.32;;;;;;;;;;5116560;27;20197;-70
2021/08/10 06:27:53;;;;;;;12.40;8.75;;;;;;;;;;5110539;27;20480;-70
2021/08/10 06:30:20;;;;;;;11.50;7.68;;;;;;;;;;5116164;27;20093;-70
2021/08/10 06:32:46;;;;;;;14.15;9.65;;;;;;;;;;5116736;27;20074;-70
2021/08/10 06:35:12;;;;;;;13.38;9.68;;;;;;;;;;5111772;27;20047;-70
2021/08/10 06:37:38;;;;;;;12.05;7.47;;;;;;;;;;5116175;27;20479;-70
2021/08/10 06:40:05;;;;;;;11.10;6.55;;;;;;;;;;5116145;27;20040;-70
2021/08/10 06:42:31;;;;;;;9.95;6.47;;;;;;;;;;5120765;27;20058;-70
2021/08/10 06:44:59;;;;;;;10.13;7.22;;;;;;;;;;5081851;27;20745;-70
2021/08/10 06:47:25;;;;;;;9.63;4.80;;;;;;;;;;5104170;28;20031;-70
2021/08/10 06:49:51;;;;;;;7.65;5.03;;;;;;;;;;5114997;27;20103;-70
2021/08/10 06:52:17;;;;;;;7.38;4.53;;;;;;;;;;5111739;27;20185;-70
2021/08/10 06:54:43;;;;;;;6.07;4.90;;;;;;;;;;5109649;27;20027;-70
2021/08/10 06:57:10;;;;;;;6.50;4.28;;;;;;;;;;5117724;27;20495;-70
2021/08/10 06:59:36;;;;;;;7.00;4.32;;;;;;;;;;5112177;27;20529;-70
2021/08/10 07:02:06;;;;;;;6.72;4.72;;;;;;;;;;5116670;27;20626;-70
2021/08/10 07:04:32;;;;;;;7.00;4.45;;;;;;;;;;5107341;27;20162;-70
2021/08/10 07:07:02;;;;;;;9.85;4.93;;;;;;;;;;5116372;27;20392;-70
2021/08/10 07:09:28;;;;;;;7.40;5.22;;;;;;;;;;5111628;27;20048;-70
2021/08/10 07:11:54;;;;;;;9.15;5.22;;;;;;;;;;5096931;27;20042;-70
2021/08/10 07:14:20;;;;;;;7.90;5.03;;;;;;;;;;5109211;27;20044;-70
2021/08/10 07:16:47;;;;;;;10.57;6.28;;;;;;;;;;5102656;27;20109;-70
2021/08/10 07:19:13;;;;;;;10.63;7.57;;;;;;;;;;5095341;28;20081;-70
2021/08/10 07:21:41;;;;;;;8.15;7.03;;;;;;;;;;5108037;27;20437;-70
2021/08/10 07:24:07;;;;;;;11.15;7.38;;;;;;;;;;5114167;27;20043;-70
2021/08/10 07:26:33;;;;;;;12.45;10.20;;;;;;;;;;5114046;27;20043;-70
2021/08/10 07:29:00;;;;;;;12.60;10.95;;;;;;;;;;5114439;27;20039;-70
2021/08/10 07:31:26;;;;;;;14.13;10.90;;;;;;;;;;5109761;27;20052;-69
2021/08/10 07:33:52;;;;;;;15.20;11.80;;;;;;;;;;5118389;27;20032;-69
2021/08/10 07:36:18;;;;;;;17.10;12.85;;;;;;;;;;5109984;27;20030;-69
2021/08/10 07:38:48;;;;;;;19.95;15.10;;;;;;;;;;5115379;27;20039;-69
2021/08/10 07:41:14;;;;;;;17.95;13.73;;;;;;;;;;5108523;27;20051;-69
2021/08/10 07:43:40;;;;;;;17.98;14.38;;;;;;;;;;5118047;27;20069;-70
2021/08/10 07:46:06;;;;;;;19.50;15.52;;;;;;;;;;5110711;27;20454;-70
2021/08/10 07:48:32;;;;;;;17.73;15.00;;;;;;;;;;5112694;27;20051;-70
2021/08/10 07:51:00;;;;;;;19.70;15.15;;;;;;;;;;5111590;27;20069;-70
2021/08/10 07:53:26;;;;;;;19.08;15.35;;;;;;;;;;5117666;27;20039;-70
2021/08/10 07:55:52;;;;;;;19.77;15.00;;;;;;;;;;5110230;27;20418;-70
2021/08/10 07:58:19;;;;;;;20.23;15.82;;;;;;;;;;5108243;27;20048;-71
2021/08/10 08:00:45;;;;;;;20.15;14.73;;;;;;;;;;5119350;27;20040;-71
2021/08/10 08:03:11;;;;;;;16.63;13.25;;;;;;;;;;5107406;27;20419;-71
2021/08/10 08:05:38;;;;;;;18.63;13.38;;;;;;;;;;5113259;27;20177;-71
2021/08/10 08:08:04;;;;;;;15.57;13.13;;;;;;;;;;5102762;27;20058;-71
2021/08/10 08:10:30;;;;;;;16.80;11.98;;;;;;;;;;5102022;27;20531;-71
2021/08/10 08:12:56;;;;;;;16.20;13.13;;;;;;;;;;5109946;27;20495;-71
2021/08/10 08:15:22;;;;;;;17.60;12.10;;;;;;;;;;5109692;27;20513;-71
2021/08/10 08:17:49;;;;;;;17.25;12.45;;;;;;;;;;5112154;27;20404;-71
2021/08/10 08:20:17;;;;;;;19.35;12.50;;;;;;;;;;5120526;27;20046;-71
2021/08/10 08:22:44;;;;;;;15.90;11.80;;;;;;;;;;5104866;27;20450;-71
2021/08/10 08:25:11;;;;;;;16.42;11.60;;;;;;;;;;5100267;27;20031;-71
2021/08/10 08:27:38;;;;;;;15.63;11.10;;;;;;;;;;5093691;27;20392;-71
2021/08/10 08:30:05;;;;;;;11.05;9.68;;;;;;;;;;5115150;27;20110;-71
2021/08/10 08:32:31;;;;;;;16.52;11.00;;;;;;;;;;5104511;27;20027;-72
2021/08/10 08:34:57;;;;;;;14.45;9.27;;;;;;;;;;5110499;27;20031;-72
2021/08/10 08:37:23;;;;;;;18.45;9.82;;;;;;;;;;5082240;28;20637;-72
2021/08/10 08:39:49;;;;;;;11.75;8.93;;;;;;;;;;5107396;27;20048;-71
2021/08/10 08:42:15;;;;;;;14.73;8.55;;;;;;;;;;5085131;28;20424;-71
2021/08/10 08:44:42;;;;;;;11.10;7.63;;;;;;;;;;5114433;27;20070;-71
2021/08/10 08:47:09;;;;;;;11.60;7.68;;;;;;;;;;5116680;27;20051;-72
2021/08/10 08:49:36;;;;;;;13.98;6.97;;;;;;;;;;5106355;27;20085;-72
2021/08/10 08:52:07;;;;;;;15.30;7.05;;;;;;;;;;5114771;27;20462;-72
2021/08/10 08:54:34;;;;;;;14.07;6.97;;;;;;;;;;5112372;27;20043;-73
2021/08/10 08:57:00;;;;;;;11.95;6.03;;;;;;;;;;5102516;27;20055;-72
2021/08/10 08:59:26;;;;;;;14.48;6.22;;;;;;;;;;5105079;27;20507;-71
2021/08/10 09:01:52;;;;;;;11.60;6.22;;;;;;;;;;5119355;27;20044;-71
2021/08/10 09:04:19;;;;;;;12.02;7.32;;;;;;;;;;5112395;27;20034;-71
2021/08/10 09:06:46;;;;;;;12.60;7.82;;;;;;;;;;5114994;27;20047;-70
2021/08/10 09:09:22;;;;;;;11.60;7.38;;;;;;;;;;5106213;27;20978;-71
2021/08/10 09:11:50;;;;;;;10.98;6.38;;;;;;;;;;5112799;27;20113;-72
2021/08/10 09:14:16;;;;;;;10.95;6.82;;;;;;;;;;5092727;28;20078;-73
2021/08/10 09:17:02;;;;;;;15.27;6.70;;;;;;;;;;5111027;27;20469;-73
2021/08/10 09:19:43;;;;;;;12.55;6.65;;;;;;;;;;5105933;27;20027;-73
2021/08/10 09:22:13;;;;;;;14.73;5.90;;;;;;;;;;5111580;27;20040;-73
2021/08/10 09:24:44;;;;;;;12.77;6.32;;;;;;;;;;5109553;27;20035;-73
2021/08/10 09:27:29;;;;;;;15.98;5.72;;;;;;;;;;5115416;27;20055;-73
2021/08/10 09:29:56;;;;;;;11.63;5.68;;;;;;;;;;5099956;27;20047;-73
2021/08/10 09:32:22;;;;;;;12.00;5.28;;;;;;;;;;5117543;27;20035;-73
2021/08/10 09:35:05;;;;;;;9.93;5.47;;;;;;;;;;5111519;27;20428;-73
2021/08/10 09:37:31;;;;;;;11.33;5.37;;;;;;;;;;5112906;27;20040;-73
2021/08/10 09:39:58;;;;;;;12.07;5.50;;;;;;;;;;5110753;27;20076;-73
2021/08/10 09:42:26;;;;;;;10.00;5.25;;;;;;;;;;5109344;27;20040;-73
2021/08/10 09:44:59;;;;;;;11.07;5.13;;;;;;;;;;5116974;27;20165;-73
2021/08/10 09:47:32;;;;;;;7.60;5.40;;;;;;;;;;5072217;28;20486;-73
2021/08/10 09:50:00;;;;;;;10.53;5.57;;;;;;;;;;5113374;27;20031;-72
2021/08/10 09:52:27;;;;;;;10.93;5.32;;;;;;;;;;5077993;28;20036;-72
2021/08/10 09:54:53;;;;;;;10.10;5.60;;;;;;;;;;5118468;28;20035;-72
2021/08/10 09:57:19;;;;;;;8.70;5.00;;;;;;;;;;5103457;28;20039;-72
2021/08/10 09:59:45;;;;;;;10.63;5.30;;;;;;;;;;5110274;28;20395;-72
2021/08/10 10:02:18;;;;;;;12.23;5.50;;;;;;;;;;5112030;28;20046;-72
2021/08/10 10:04:49;;;;;;;10.57;5.28;;;;;;;;;;5114984;28;20035;-72
2021/08/10 10:07:15;;;;;;;14.52;4.95;;;;;;;;;;5069968;28;20057;-72
2021/08/10 10:09:42;;;;;;;10.57;4.85;;;;;;;;;;5089809;28;20040;-72
2021/08/10 10:12:09;;;;;;;9.27;4.80;;;;;;;;;;5088775;28;20032;-72
2021/08/10 10:14:36;;;;;;;8.48;4.38;;;;;;;;;;5093138;28;20071;-72
2021/08/10 10:17:03;;;;;;;10.38;4.63;;;;;;;;;;5079460;28;20102;-72
2021/08/10 10:19:29;;;;;;;8.95;4.70;;;;;;;;;;5092562;28;20033;-72
2021/08/10 10:21:58;;;;;;;9.63;4.68;;;;;;;;;;5091202;28;20062;-72
2021/08/10 10:24:25;;;;;;;7.85;3.88;;;;;;;;;;5089907;28;20066;-72
2021/08/10 10:27:02;;;;;;;8.38;4.38;;;;;;;;;;5082227;28;20409;-72
2021/08/10 10:29:28;;;;;;;9.75;4.25;;;;;;;;;;5095652;28;20043;-72
2021/08/10 10:31:55;;;;;;;7.93;4.38;;;;;;;;;;5096166;28;20475;-72
2021/08/10 10:34:21;;;;;;;9.95;4.70;;;;;;;;;;5087835;28;20036;-72
2021/08/10 10:36:48;;;;;;;8.27;4.47;;;;;;;;;;5087052;28;20035;-72
2021/08/10 10:39:20;;;;;;;8.30;4.80;;;;;;;;;;5089516;28;20039;-72
2021/08/10 10:41:46;;;;;;;10.15;4.63;;;;;;;;;;5093665;28;20055;-72
2021/08/10 10:44:13;;;;;;;8.00;4.72;;;;;;;;;;5086768;28;20036;-72
2021/08/10 10:46:40;;;;;;;7.82;3.78;;;;;;;;;;5092435;28;20028;-72
2021/08/10 10:49:09;;;;;;;8.18;3.63;;;;;;;;;;5090912;28;20041;-73
2021/08/10 10:51:37;;;;;;;9.05;3.90;;;;;;;;;;5094753;28;20039;-73
2021/08/10 10:54:23;;;;;;;8.20;3.88;;;;;;;;;;5086758;28;20120;-73
2021/08/10 10:56:50;;;;;;;7.03;3.88;;;;;;;;;;5087217;28;20094;-73
2021/08/10 10:59:24;;;;;;;7.60;3.90;;;;;;;;;;5088706;28;20499;-74
2021/08/10 11:01:53;;;;;;;7.85;3.67;;;;;;;;;;5094325;28;20044;-73
2021/08/10 11:04:19;;;;;;;8.00;3.15;;;;;;;;;;5083610;28;20036;-73
2021/08/10 11:06:47;;;;;;;7.32;3.00;;;;;;;;;;5100827;27;20047;-73
2021/08/10 11:09:32;;;;;;;4.93;3.10;;;;;;;;;;5116035;27;20035;-73
2021/08/10 11:11:58;;;;;;;8.25;4.93;;;;;;;;;;5118388;27;20520;-73
2021/08/10 11:14:36;;;;;;;8.43;5.13;;;;;;;;;;5109063;27;20057;-74
2021/08/10 11:17:09;;;;;;;11.20;4.50;;;;;;;;;;5114661;27;20111;-73
2021/08/10 11:19:37;;;;;;;9.52;4.43;;;;;;;;;;5079439;28;20046;-73
2021/08/10 11:22:15;;;;;;;8.27;4.10;;;;;;;;;;5119143;27;20039;-73
2021/08/10 11:24:51;;;;;;;8.95;4.68;;;;;;;;;;5105150;27;20096;-73
2021/08/10 11:27:34;;;;;;;9.38;4.40;;;;;;;;;;5096306;28;20048;-73
2021/08/10 11:30:01;;;;;;;9.77;5.30;;;;;;;;;;5110399;27;20032;-73
2021/08/10 11:32:36;;;;;;;7.00;4.80;;;;;;;;;;5102777;27;20499;-73
2021/08/10 11:35:22;;;;;;;8.25;4.60;;;;;;;;;;5080291;27;20061;-73
2021/08/10 11:38:06;;;;;;;9.50;4.70;;;;;;;;;;5108356;27;20035;-73
2021/08/10 11:40:53;;;;;;;9.30;3.88;;;;;;;;;;5075999;28;20073;-73
2021/08/10 11:43:20;;;;;;;8.85;3.92;;;;;;;;;;5096340;28;20039;-73
2021/08/10 11:45:46;;;;;;;6.78;4.22;;;;;;;;;;5095736;28;20088;-73
2021/08/10 11:48:12;;;;;;;7.85;3.97;;;;;;;;;;5112914;27;20412;-73
2021/08/10 11:50:38;;;;;;;6.45;4.05;;;;;;;;;;5107790;27;20078;-74
2021/08/10 11:53:04;;;;;;;6.82;3.10;;;;;;;;;;5117027;27;20034;-74
2021/08/10 11:55:32;;;;;;;5.47;3.00;;;;;;;;;;5111528;27;20079;-74
2021/08/10 11:57:59;;;;;;;6.38;3.13;;;;;;;;;;5117147;27;20035;-74
2021/08/10 12:00:26;;;;;;;5.18;3.28;;;;;;;;;;5108098;27;20024;-71
2021/08/10 12:02:52;;;;;;;7.45;3.65;;;;;;;;;;5121491;27;20118;-76
2021/08/10 12:05:18;;;;;;;6.38;3.80;;;;;;;;;;5112103;27;20071;-76
2021/08/10 12:07:52;;;;;;;7.30;3.60;;;;;;;;;;5104922;27;20039;-77
2021/08/10 12:10:28;;;;;;;5.35;3.13;;;;;;;;;;5110827;27;20519;-77
2021/08/10 12:12:54;;;;;;;5.60;3.65;;;;;;;;;;5114513;27;20073;-71
2021/08/10 12:15:36;;;;;;;7.03;3.60;;;;;;;;;;5084021;28;20052;-72
2021/08/10 12:18:02;;;;;;;5.70;3.17;;;;;;;;;;5098936;27;20067;-73
2021/08/10 12:20:28;;;;;;;3.50;2.33;;;;;;;;;;5116636;27;20150;-73
2021/08/10 12:23:07;;;;;;;2.60;1.73;;;;;;;;;;5111784;27;20031;-73
2021/08/10 12:25:33;;;;;;;4.32;1.60;;;;;;;;;;5086304;27;20376;-73
2021/08/10 12:28:01;;;;;;;2.10;1.60;;;;;;;;;;5106624;27;20047;-73
2021/08/10 12:30:30;;;;;;;2.22;1.30;;;;;;;;;;5118214;27;20138;-72
2021/08/10 12:33:14;;;;;;;2.28;1.30;;;;;;;;;;5109202;27;20044;-72
2021/08/10 12:35:55;;;;;;;4.35;1.48;;;;;;;;;;5115507;27;20031;-72
2021/08/10 12:38:22;;;;;;;2.28;1.58;;;;;;;;;;5104236;27;20488;-72
2021/08/10 12:40:49;;;;;;;3.15;1.63;;;;;;;;;;5110667;27;20085;-72
2021/08/10 12:43:15;;;;;;;2.83;1.50;;;;;;;;;;5091503;28;20040;-72
2021/08/10 12:45:41;;;;;;;3.05;1.60;;;;;;;;;;5110152;27;20433;-72
2021/08/10 12:48:43;;;;;;;3.92;2.10;;;;;;;;;;5107915;27;20447;-72
2021/08/10 12:51:09;;;;;;;6.25;2.42;;;;;;;;;;5010129;28;20813;-72
2021/08/10 12:53:36;;;;;;;4.55;2.67;;;;;;;;;;5070456;27;20062;-73
2021/08/10 12:56:04;;;;;;;6.10;2.65;;;;;;;;;;5112427;27;20113;-73
2021/08/10 12:58:30;;;;;;;4.90;2.97;;;;;;;;;;5104832;27;20491;-73
2021/08/10 13:00:57;;;;;;;4.95;2.67;;;;;;;;;;5115607;27;20047;-73
2021/08/10 13:03:24;;;;;;;5.18;2.78;;;;;;;;;;5111443;27;20379;-74
2021/08/10 13:05:50;;;;;;;5.35;2.72;;;;;;;;;;5111931;27;20039;-73
2021/08/10 13:08:16;;;;;;;5.10;2.90;;;;;;;;;;5101190;27;22556;-74
2021/08/10 13:10:43;;;;;;;4.43;2.15;;;;;;;;;;5114546;27;20080;-75
2021/08/10 13:13:11;;;;;;;3.30;2.40;;;;;;;;;;5108829;27;20392;-75
2021/08/10 13:15:41;;;;;;;4.90;2.40;;;;;;;;;;5108068;27;20039;-75
2021/08/10 13:18:14;;;;;;;4.40;2.20;;;;;;;;;;5082723;28;20043;-75
2021/08/10 13:20:51;;;;;;;4.43;2.17;;;;;;;;;;5108715;27;20514;-76
2021/08/10 13:23:17;;;;;;;3.35;2.05;;;;;;;;;;5113006;27;20490;-76
2021/08/10 13:25:53;;;;;;;4.82;1.98;;;;;;;;;;5106119;27;20123;-76
2021/08/10 13:28:20;;;;;;;4.03;2.25;;;;;;;;;;5109951;27;20050;-76
2021/08/10 13:30:46;;;;;;;3.70;1.90;;;;;;;;;;5106843;27;20114;-74
2021/08/10 13:33:21;;;;;;;3.65;2.00;;;;;;;;;;5113877;27;20118;-74
2021/08/10 13:35:48;;;;;;;3.53;1.70;;;;;;;;;;5107778;27;20046;-74
2021/08/10 13:38:15;;;;;;;3.40;1.98;;;;;;;;;;5111901;27;20391;-74
2021/08/10 13:40:41;;;;;;;2.78;1.77;;;;;;;;;;5110674;28;20077;-74
2021/08/10 13:43:08;;;;;;;3.28;1.92;;;;;;;;;;5085789;27;20078;-74
2021/08/10 13:45:38;;;;;;;3.35;1.75;;;;;;;;;;5105986;27;20472;-74
2021/08/10 13:48:05;;;;;;;3.00;1.63;;;;;;;;;;5082656;28;20034;-75
2021/08/10 13:50:31;;;;;;;2.85;2.03;;;;;;;;;;5104073;27;20043;-74
2021/08/10 13:52:57;;;;;;;4.32;2.47;;;;;;;;;;5094311;28;20479;-74
2021/08/10 13:55:23;;;;;;;4.68;2.47;;;;;;;;;;5104663;28;20039;-74
2021/08/10 13:57:49;;;;;;;5.07;2.05;;;;;;;;;;5118601;28;20046;-74
2021/08/10 14:00:15;;;;;;;4.03;2.03;;;;;;;;;;5094261;28;20490;-74
2021/08/10 14:02:44;;;;;;;2.70;1.98;;;;;;;;;;5111615;28;20335;-74
2021/08/10 14:05:11;;;;;;;4.30;2.15;;;;;;;;;;5111387;28;20187;-73
2021/08/10 14:07:37;;;;;;;4.07;2.17;;;;;;;;;;5076538;28;20062;-73
2021/08/10 14:10:04;;;;;;;4.68;1.95;;;;;;;;;;5085832;28;20056;-73
2021/08/10 14:12:30;;;;;;;3.97;1.90;;;;;;;;;;5081287;28;20036;-73
2021/08/10 14:14:56;;;;;;;3.63;1.90;;;;;;;;;;5094615;28;20039;-73
2021/08/10 14:17:22;;;;;;;3.65;2.33;;;;;;;;;;5089061;28;20123;-74
2021/08/10 14:19:48;;;;;;;3.95;2.05;;;;;;;;;;5087041;28;20036;-74
2021/08/10 14:22:14;;;;;;;3.88;2.17;;;;;;;;;;5087927;28;20067;-74
2021/08/10 14:24:41;;;;;;;3.38;2.05;;;;;;;;;;5095970;28;20449;-74
2021/08/10 14:27:08;;;;;;;5.60;2.17;;;;;;;;;;5087618;28;20115;-74
2021/08/10 14:29:35;;;;;;;5.95;3.05;;;;;;;;;;5088476;28;20063;-74
2021/08/10 14:32:02;;;;;;;4.60;2.83;;;;;;;;;;5086179;28;20707;-74
2021/08/10 14:34:28;;;;;;;7.50;3.08;;;;;;;;;;5099711;28;20107;-74
2021/08/10 14:36:55;;;;;;;5.28;2.75;;;;;;;;;;5091599;28;20031;-73
2021/08/10 14:39:21;;;;;;;4.78;2.90;;;;;;;;;;5093334;28;20060;-73